sensor_id;sensor_type;location;lat;lon;timestamp;pressure;altitude;pressure_sealevel;temperature;humidity
3812;BME280;1921;49.368;11.068;2023-08-30T00:00:47;96997.09;;;13.30;100.00
3812;BME280;1921;49.368;11.068;2023-08-30T00:03:14;96993.50;;;13.25;100.00
3812;BME280;1921;49.368;11.068;2023-08-30T00:05:40;97009.38;;;13.36;100.00
3812;BME280;1921;49.368;11.068;2023-08-30T00:08:06;96986.84;;;13.22;100.00
3812;BME280;1921;49.368;11.068;2023-08-30T00:10:33;96991.69;;;13.18;100.00
3812;BME280;1921;49.368;11.068;2023-08-30T00:12:59;97027.84;;;13.48;100.00
3812;BME280;1921;49.368;11.068;2023-08-30T00:15:25;97016.00;;;13.39;100.00
3812;BME280;1921;49.368;11.068;2023-08-30T00:17:51;97022.59;;;13.48;100.00
3812;BME280;1921;49.368;11.068;2023-08-30T00:20:20;96976.59;;;13.20;100.00
3812;BME280;1921;49.368;11.068;2023-08-30T00:22:47;97046.69;;;13.63;100.00
3812;BME280;1921;49.368;11.068;2023-08-30T00:25:15;97024.81;;;13.44;100.00
3812;BME280;1921;49.368;11.068;2023-08-30T00:27:41;96975.59;;;13.15;100.00
3812;BME280;1921;49.368;11.068;2023-08-30T00:30:08;97032.69;;;13.44;100.00
3812;BME280;1921;49.368;11.068;2023-08-30T00:32:35;97010.38;;;13.29;100.00
3812;BME280;1921;49.368;11.068;2023-08-30T00:35:01;96996.75;;;13.13;100.00
3812;BME280;1921;49.368;11.068;2023-08-30T00:37:27;96992.94;;;13.09;100.00
3812;BME280;1921;49.368;11.068;2023-08-30T00:39:53;96987.94;;;13.01;100.00
3812;BME280;1921;49.368;11.068;2023-08-30T00:42:19;97013.72;;;13.04;100.00
3812;BME280;1921;49.368;11.068;2023-08-30T00:44:44;97032.03;;;13.04;100.00
3812;BME280;1921;49.368;11.068;2023-08-30T00:47:10;97027.75;;;13.10;100.00
3812;BME280;1921;49.368;11.068;2023-08-30T00:49:36;97023.34;;;13.04;100.00
3812;BME280;1921;49.368;11.068;2023-08-30T00:52:08;96973.69;;;12.84;100.00
3812;BME280;1921;49.368;11.068;2023-08-30T00:54:35;97018.50;;;13.14;100.00
3812;BME280;1921;49.368;11.068;2023-08-30T00:57:01;96970.53;;;12.75;100.00
3812;BME280;1921;49.368;11.068;2023-08-30T00:59:28;96997.25;;;12.84;100.00
3812;BME280;1921;49.368;11.068;2023-08-30T01:01:55;96947.06;;;12.49;100.00
3812;BME280;1921;49.368;11.068;2023-08-30T01:04:21;97021.75;;;13.03;100.00
3812;BME280;1921;49.368;11.068;2023-08-30T01:06:48;96860.88;;;12.09;100.00
3812;BME280;1921;49.368;11.068;2023-08-30T01:09:15;97003.06;;;12.99;100.00
3812;BME280;1921;49.368;11.068;2023-08-30T01:12:00;97037.00;;;13.26;100.00
3812;BME280;1921;49.368;11.068;2023-08-30T01:14:44;96986.16;;;12.95;100.00
3812;BME280;1921;49.368;11.068;2023-08-30T01:17:12;96997.81;;;12.99;100.00
3812;BME280;1921;49.368;11.068;2023-08-30T01:19:58;97037.41;;;13.23;100.00
3812;BME280;1921;49.368;11.068;2023-08-30T01:22:40;97011.25;;;13.09;100.00
3812;BME280;1921;49.368;11.068;2023-08-30T01:28:05;97033.38;;;13.27;100.00
3812;BME280;1921;49.368;11.068;2023-08-30T01:30:37;96980.91;;;12.95;100.00
3812;BME280;1921;49.368;11.068;2023-08-30T01:33:06;97005.19;;;13.15;100.00
3812;BME280;1921;49.368;11.068;2023-08-30T01:35:34;97015.63;;;13.29;100.00
3812;BME280;1921;49.368;11.068;2023-08-30T01:38:03;97020.69;;;13.30;100.00
3812;BME280;1921;49.368;11.068;2023-08-30T01:40:36;96994.31;;;13.18;100.00
3812;BME280;1921;49.368;11.068;2023-08-30T01:43:02;97006.16;;;13.28;100.00
3812;BME280;1921;49.368;11.068;2023-08-30T01:45:33;96991.28;;;13.22;100.00
3812;BME280;1921;49.368;11.068;2023-08-30T01:48:00;97004.94;;;13.37;100.00
3812;BME280;1921;49.368;11.068;2023-08-30T01:50:26;96938.78;;;13.03;100.00
3812;BME280;1921;49.368;11.068;2023-08-30T01:52:53;96909.88;;;12.85;100.00
3812;BME280;1921;49.368;11.068;2023-08-30T01:55:20;97028.78;;;13.60;100.00
3812;BME280;1921;49.368;11.068;2023-08-30T01:57:47;97032.97;;;13.68;100.00
3812;BME280;1921;49.368;11.068;2023-08-30T02:00:13;97042.78;;;13.79;100.00
3812;BME280;1921;49.368;11.068;2023-08-30T02:02:39;97024.09;;;13.69;100.00
3812;BME280;1921;49.368;11.068;2023-08-30T02:05:05;97023.19;;;13.50;100.00
3812;BME280;1921;49.368;11.068;2023-08-30T02:07:57;97029.63;;;13.54;100.00
3812;BME280;1921;49.368;11.068;2023-08-30T02:10:35;97039.22;;;13.67;100.00
3812;BME280;1921;49.368;11.068;2023-08-30T02:13:03;97026.56;;;13.57;100.00
3812;BME280;1921;49.368;11.068;2023-08-30T02:15:33;97042.38;;;13.76;100.00
3812;BME280;1921;49.368;11.068;2023-08-30T02:17:59;97015.69;;;13.60;100.00
3812;BME280;1921;49.368;11.068;2023-08-30T02:20:26;97039.94;;;13.81;100.00
3812;BME280;1921;49.368;11.068;2023-08-30T02:22:51;96970.25;;;13.35;100.00
3812;BME280;1921;49.368;11.068;2023-08-30T02:25:17;97015.78;;;13.72;100.00
3812;BME280;1921;49.368;11.068;2023-08-30T02:27:43;97005.00;;;13.62;100.00
3812;BME280;1921;49.368;11.068;2023-08-30T02:30:09;96980.69;;;13.48;100.00
3812;BME280;1921;49.368;11.068;2023-08-30T02:32:35;96968.00;;;13.45;100.00
3812;BME280;1921;49.368;11.068;2023-08-30T02:35:02;96982.44;;;13.61;100.00
3812;BME280;1921;49.368;11.068;2023-08-30T02:37:28;96926.81;;;13.27;100.00
3812;BME280;1921;49.368;11.068;2023-08-30T02:39:53;96977.59;;;13.58;100.00
3812;BME280;1921;49.368;11.068;2023-08-30T02:42:19;96992.66;;;13.69;100.00
3812;BME280;1921;49.368;11.068;2023-08-30T02:44:45;96959.75;;;13.48;100.00
3812;BME280;1921;49.368;11.068;2023-08-30T02:47:11;97005.69;;;13.76;100.00
3812;BME280;1921;49.368;11.068;2023-08-30T02:49:36;96984.38;;;13.65;100.00
3812;BME280;1921;49.368;11.068;2023-08-30T02:52:02;96982.22;;;13.62;100.00
3812;BME280;1921;49.368;11.068;2023-08-30T02:54:28;96987.44;;;13.62;100.00
3812;BME280;1921;49.368;11.068;2023-08-30T02:56:54;96995.31;;;13.62;100.00
3812;BME280;1921;49.368;11.068;2023-08-30T02:59:19;96989.47;;;13.60;100.00
3812;BME280;1921;49.368;11.068;2023-08-30T03:01:45;96985.28;;;13.53;100.00
3812;BME280;1921;49.368;11.068;2023-08-30T03:04:11;96948.50;;;13.34;100.00
3812;BME280;1921;49.368;11.068;2023-08-30T03:06:37;96984.06;;;13.55;100.00
3812;BME280;1921;49.368;11.068;2023-08-30T03:09:02;97015.34;;;13.82;100.00
3812;BME280;1921;49.368;11.068;2023-08-30T03:11:29;96949.50;;;13.40;100.00
3812;BME280;1921;49.368;11.068;2023-08-30T03:13:54;96997.13;;;13.62;100.00
3812;BME280;1921;49.368;11.068;2023-08-30T03:16:20;97017.19;;;13.74;100.00
3812;BME280;1921;49.368;11.068;2023-08-30T03:18:47;96986.47;;;13.57;100.00
3812;BME280;1921;49.368;11.068;2023-08-30T03:21:13;96986.47;;;13.57;100.00
3812;BME280;1921;49.368;11.068;2023-08-30T03:23:40;96942.34;;;13.22;100.00
3812;BME280;1921;49.368;11.068;2023-08-30T03:26:11;96978.47;;;13.45;100.00
3812;BME280;1921;49.368;11.068;2023-08-30T03:28:38;96990.91;;;13.56;100.00
3812;BME280;1921;49.368;11.068;2023-08-30T03:31:19;97013.94;;;13.79;100.00
3812;BME280;1921;49.368;11.068;2023-08-30T03:33:46;96980.88;;;13.46;100.00
3812;BME280;1921;49.368;11.068;2023-08-30T03:36:14;96989.28;;;13.62;100.00
3812;BME280;1921;49.368;11.068;2023-08-30T03:38:41;97034.88;;;13.86;100.00
3812;BME280;1921;49.368;11.068;2023-08-30T03:41:08;96917.47;;;13.00;100.00
3812;BME280;1921;49.368;11.068;2023-08-30T03:43:34;97014.06;;;13.59;100.00
3812;BME280;1921;49.368;11.068;2023-08-30T03:46:01;96889.84;;;12.65;100.00
3812;BME280;1921;49.368;11.068;2023-08-30T03:48:27;97030.56;;;13.60;100.00
3812;BME280;1921;49.368;11.068;2023-08-30T03:50:57;96963.69;;;13.26;100.00
3812;BME280;1921;49.368;11.068;2023-08-30T03:53:24;97008.41;;;13.62;100.00
3812;BME280;1921;49.368;11.068;2023-08-30T03:55:50;97001.78;;;13.53;100.00
3812;BME280;1921;49.368;11.068;2023-08-30T03:58:18;97006.84;;;13.55;100.00
3812;BME280;1921;49.368;11.068;2023-08-30T04:00:44;97010.94;;;13.44;100.00
3812;BME280;1921;49.368;11.068;2023-08-30T04:03:10;96968.53;;;13.22;100.00
3812;BME280;1921;49.368;11.068;2023-08-30T04:05:37;97013.69;;;13.56;100.00
3812;BME280;1921;49.368;11.068;2023-08-30T04:08:07;97001.88;;;13.40;100.00
3812;BME280;1921;49.368;11.068;2023-08-30T04:10:37;96994.22;;;13.38;100.00
3812;BME280;1921;49.368;11.068;2023-08-30T04:13:04;96889.25;;;12.63;100.00
3812;BME280;1921;49.368;11.068;2023-08-30T04:15:38;96960.72;;;13.09;100.00
3812;BME280;1921;49.368;11.068;2023-08-30T04:18:05;97001.53;;;13.30;100.00
3812;BME280;1921;49.368;11.068;2023-08-30T04:20:33;97027.25;;;13.39;100.00
3812;BME280;1921;49.368;11.068;2023-08-30T04:23:00;97022.81;;;13.40;100.00
3812;BME280;1921;49.368;11.068;2023-08-30T04:25:30;96977.06;;;13.04;100.00
3812;BME280;1921;49.368;11.068;2023-08-30T04:27:56;96975.00;;;13.13;100.00
3812;BME280;1921;49.368;11.068;2023-08-30T04:30:22;96950.09;;;12.97;100.00
3812;BME280;1921;49.368;11.068;2023-08-30T04:32:48;96957.53;;;13.00;100.00
3812;BME280;1921;49.368;11.068;2023-08-30T04:35:14;96994.72;;;13.22;100.00
3812;BME280;1921;49.368;11.068;2023-08-30T04:37:40;97002.34;;;13.30;100.00
3812;BME280;1921;49.368;11.068;2023-08-30T04:40:09;96971.97;;;13.09;100.00
3812;BME280;1921;49.368;11.068;2023-08-30T04:42:36;97025.84;;;13.43;100.00
3812;BME280;1921;49.368;11.068;2023-08-30T04:45:04;96964.59;;;13.00;100.00
3812;BME280;1921;49.368;11.068;2023-08-30T04:47:30;97039.75;;;13.44;100.00
3812;BME280;1921;49.368;11.068;2023-08-30T04:49:57;97039.13;;;13.49;100.00
3812;BME280;1921;49.368;11.068;2023-08-30T04:52:23;96994.53;;;13.24;100.00
3812;BME280;1921;49.368;11.068;2023-08-30T04:54:49;97009.38;;;13.36;100.00
3812;BME280;1921;49.368;11.068;2023-08-30T04:57:15;96986.66;;;13.24;100.00
3812;BME280;1921;49.368;11.068;2023-08-30T04:59:45;97054.16;;;13.66;100.00
3812;BME280;1921;49.368;11.068;2023-08-30T05:02:11;97001.03;;;13.46;100.00
3812;BME280;1921;49.368;11.068;2023-08-30T05:04:37;96959.25;;;13.26;100.00
3812;BME280;1921;49.368;11.068;2023-08-30T05:07:03;97043.59;;;13.80;100.00
3812;BME280;1921;49.368;11.068;2023-08-30T05:09:30;96992.59;;;13.44;100.00
3812;BME280;1921;49.368;11.068;2023-08-30T05:11:58;96980.50;;;13.43;100.00
3812;BME280;1921;49.368;11.068;2023-08-30T05:14:24;96969.81;;;13.44;100.00
3812;BME280;1921;49.368;11.068;2023-08-30T05:16:50;97034.03;;;13.92;100.00
3812;BME280;1921;49.368;11.068;2023-08-30T05:19:16;96990.78;;;13.76;100.00
3812;BME280;1921;49.368;11.068;2023-08-30T05:21:44;97007.19;;;13.90;100.00
3812;BME280;1921;49.368;11.068;2023-08-30T05:24:10;97007.72;;;14.05;100.00
3812;BME280;1921;49.368;11.068;2023-08-30T05:26:37;96985.38;;;13.96;100.00
3812;BME280;1921;49.368;11.068;2023-08-30T05:29:03;96990.56;;;14.02;100.00
3812;BME280;1921;49.368;11.068;2023-08-30T05:31:29;97009.94;;;14.26;100.00
3812;BME280;1921;49.368;11.068;2023-08-30T05:33:55;97011.06;;;14.37;100.00
3812;BME280;1921;49.368;11.068;2023-08-30T05:36:21;97025.19;;;14.61;100.00
3812;BME280;1921;49.368;11.068;2023-08-30T05:38:46;96969.16;;;14.31;100.00
3812;BME280;1921;49.368;11.068;2023-08-30T05:41:12;96931.22;;;14.08;100.00
3812;BME280;1921;49.368;11.068;2023-08-30T05:43:38;97001.09;;;14.46;100.00
3812;BME280;1921;49.368;11.068;2023-08-30T05:46:04;96981.00;;;14.58;100.00
3812;BME280;1921;49.368;11.068;2023-08-30T05:48:30;96967.31;;;14.56;100.00
3812;BME280;1921;49.368;11.068;2023-08-30T05:50:56;96992.84;;;14.86;100.00
3812;BME280;1921;49.368;11.068;2023-08-30T05:53:23;97012.16;;;15.10;100.00
3812;BME280;1921;49.368;11.068;2023-08-30T05:55:48;96984.28;;;15.08;100.00
3812;BME280;1921;49.368;11.068;2023-08-30T05:58:14;96969.59;;;15.19;100.00
3812;BME280;1921;49.368;11.068;2023-08-30T06:00:41;96929.72;;;15.11;100.00
3812;BME280;1921;49.368;11.068;2023-08-30T06:03:07;97007.88;;;15.75;100.00
3812;BME280;1921;49.368;11.068;2023-08-30T06:05:33;97023.81;;;15.92;100.00
3812;BME280;1921;49.368;11.068;2023-08-30T06:07:59;96995.22;;;15.96;100.00
3812;BME280;1921;49.368;11.068;2023-08-30T06:10:26;96984.38;;;15.92;100.00
3812;BME280;1921;49.368;11.068;2023-08-30T06:12:53;97007.34;;;16.08;100.00
3812;BME280;1921;49.368;11.068;2023-08-30T06:15:18;96985.06;;;16.11;100.00
3812;BME280;1921;49.368;11.068;2023-08-30T06:17:44;96994.22;;;16.43;100.00
3812;BME280;1921;49.368;11.068;2023-08-30T06:20:12;97016.88;;;16.68;100.00
3812;BME280;1921;49.368;11.068;2023-08-30T06:22:38;97028.44;;;16.67;100.00
3812;BME280;1921;49.368;11.068;2023-08-30T06:25:05;96989.75;;;16.67;100.00
3812;BME280;1921;49.368;11.068;2023-08-30T06:27:32;96987.13;;;16.79;100.00
3812;BME280;1921;49.368;11.068;2023-08-30T06:29:58;96990.09;;;16.83;99.30
3812;BME280;1921;49.368;11.068;2023-08-30T06:32:25;96982.66;;;16.91;100.00
3812;BME280;1921;49.368;11.068;2023-08-30T06:34:50;97032.75;;;17.48;100.00
3812;BME280;1921;49.368;11.068;2023-08-30T06:37:16;96978.34;;;17.42;100.00
3812;BME280;1921;49.368;11.068;2023-08-30T06:39:42;97002.44;;;17.63;98.87
3812;BME280;1921;49.368;11.068;2023-08-30T06:42:08;97024.03;;;18.05;100.00
3812;BME280;1921;49.368;11.068;2023-08-30T06:44:34;96987.41;;;18.09;100.00
3812;BME280;1921;49.368;11.068;2023-08-30T06:47:00;97003.28;;;18.47;100.00
3812;BME280;1921;49.368;11.068;2023-08-30T06:49:25;97000.31;;;18.61;98.46
3812;BME280;1921;49.368;11.068;2023-08-30T06:51:51;97002.28;;;18.87;98.08
3812;BME280;1921;49.368;11.068;2023-08-30T06:54:17;97023.84;;;19.23;96.04
3812;BME280;1921;49.368;11.068;2023-08-30T06:57:00;96959.94;;;19.04;94.95
3812;BME280;1921;49.368;11.068;2023-08-30T06:59:27;96977.97;;;19.34;92.95
3812;BME280;1921;49.368;11.068;2023-08-30T07:01:53;96950.09;;;18.99;88.83
3812;BME280;1921;49.368;11.068;2023-08-30T07:04:19;96975.16;;;19.19;84.72
3812;BME280;1921;49.368;11.068;2023-08-30T07:06:45;96972.44;;;19.35;86.62
3812;BME280;1921;49.368;11.068;2023-08-30T07:09:11;96970.19;;;19.49;84.95
3812;BME280;1921;49.368;11.068;2023-08-30T07:11:38;96996.91;;;19.75;84.41
3812;BME280;1921;49.368;11.068;2023-08-30T07:14:04;97015.59;;;19.90;82.15
3812;BME280;1921;49.368;11.068;2023-08-30T07:16:30;96979.75;;;19.77;80.23
3812;BME280;1921;49.368;11.068;2023-08-30T07:18:57;97019.72;;;20.08;77.99
3812;BME280;1921;49.368;11.068;2023-08-30T07:21:23;97022.16;;;20.14;80.50
3812;BME280;1921;49.368;11.068;2023-08-30T07:23:49;96981.81;;;20.02;79.01
3812;BME280;1921;49.368;11.068;2023-08-30T07:26:15;96991.41;;;20.08;77.90
3812;BME280;1921;49.368;11.068;2023-08-30T07:28:41;96981.69;;;19.33;78.63
3812;BME280;1921;49.368;11.068;2023-08-30T07:31:07;96959.31;;;19.46;78.36
3812;BME280;1921;49.368;11.068;2023-08-30T07:33:33;96993.94;;;19.98;77.06
3812;BME280;1921;49.368;11.068;2023-08-30T07:35:58;96988.28;;;20.16;77.17
3812;BME280;1921;49.368;11.068;2023-08-30T07:38:24;96968.66;;;20.12;76.19
3812;BME280;1921;49.368;11.068;2023-08-30T07:40:50;96991.63;;;20.39;75.92
3812;BME280;1921;49.368;11.068;2023-08-30T07:43:16;96984.03;;;20.53;75.07
3812;BME280;1921;49.368;11.068;2023-08-30T07:45:42;97020.41;;;20.62;73.11
3812;BME280;1921;49.368;11.068;2023-08-30T07:48:08;96968.56;;;20.39;73.49
3812;BME280;1921;49.368;11.068;2023-08-30T07:50:34;97004.06;;;20.76;74.36
3812;BME280;1921;49.368;11.068;2023-08-30T07:53:00;96980.66;;;20.67;72.76
3812;BME280;1921;49.368;11.068;2023-08-30T07:55:25;97025.06;;;21.50;71.22
3812;BME280;1921;49.368;11.068;2023-08-30T07:57:51;97003.34;;;21.68;69.08
3812;BME280;1921;49.368;11.068;2023-08-30T08:00:17;96957.44;;;21.83;68.40
3812;BME280;1921;49.368;11.068;2023-08-30T08:02:43;96963.56;;;21.94;66.77
3812;BME280;1921;49.368;11.068;2023-08-30T08:05:09;96983.72;;;22.41;62.31
3812;BME280;1921;49.368;11.068;2023-08-30T08:07:39;96982.63;;;22.57;62.29
3812;BME280;1921;49.368;11.068;2023-08-30T08:10:07;97013.41;;;22.78;61.54
3812;BME280;1921;49.368;11.068;2023-08-30T08:12:33;96970.94;;;22.48;60.22
3812;BME280;1921;49.368;11.068;2023-08-30T08:14:59;96935.88;;;22.46;61.27
3812;BME280;1921;49.368;11.068;2023-08-30T08:17:25;96933.13;;;22.76;61.30
3812;BME280;1921;49.368;11.068;2023-08-30T08:19:51;97001.19;;;22.93;57.95
3812;BME280;1921;49.368;11.068;2023-08-30T08:22:17;96984.56;;;23.16;60.93
3812;BME280;1921;49.368;11.068;2023-08-30T08:24:43;96928.59;;;22.82;56.75
3812;BME280;1921;49.368;11.068;2023-08-30T08:27:13;96981.72;;;23.02;59.24
3812;BME280;1921;49.368;11.068;2023-08-30T08:29:39;96970.56;;;22.95;57.89
3812;BME280;1921;49.368;11.068;2023-08-30T08:32:05;96982.50;;;23.08;57.48
3812;BME280;1921;49.368;11.068;2023-08-30T08:34:31;96960.97;;;23.04;58.16
3812;BME280;1921;49.368;11.068;2023-08-30T08:36:56;96956.44;;;23.05;56.70
3812;BME280;1921;49.368;11.068;2023-08-30T08:39:22;96987.22;;;23.21;57.84
3812;BME280;1921;49.368;11.068;2023-08-30T08:41:51;96992.03;;;23.19;58.14
3812;BME280;1921;49.368;11.068;2023-08-30T08:44:18;96994.09;;;23.27;58.49
3812;BME280;1921;49.368;11.068;2023-08-30T08:46:45;96969.00;;;23.44;58.05
3812;BME280;1921;49.368;11.068;2023-08-30T08:49:15;96960.91;;;23.64;57.01
3812;BME280;1921;49.368;11.068;2023-08-30T08:51:44;96947.97;;;23.86;55.16
3812;BME280;1921;49.368;11.068;2023-08-30T08:54:11;96945.19;;;24.02;56.64
3812;BME280;1921;49.368;11.068;2023-08-30T08:56:38;96960.88;;;24.32;54.86
3812;BME280;1921;49.368;11.068;2023-08-30T08:59:05;96867.03;;;23.82;55.43
3812;BME280;1921;49.368;11.068;2023-08-30T09:01:36;96937.75;;;24.28;53.95
3812;BME280;1921;49.368;11.068;2023-08-30T09:04:14;96954.97;;;24.40;54.62
3812;BME280;1921;49.368;11.068;2023-08-30T09:06:39;96947.22;;;24.68;53.08
3812;BME280;1921;49.368;11.068;2023-08-30T09:09:07;96982.84;;;25.25;51.22
3812;BME280;1921;49.368;11.068;2023-08-30T09:11:34;97003.72;;;25.98;50.38
3812;BME280;1921;49.368;11.068;2023-08-30T09:14:00;97001.81;;;26.64;48.95
3812;BME280;1921;49.368;11.068;2023-08-30T09:16:26;96970.25;;;26.80;45.60
3812;BME280;1921;49.368;11.068;2023-08-30T09:19:03;96945.25;;;26.57;44.81
3812;BME280;1921;49.368;11.068;2023-08-30T09:21:29;96970.78;;;26.36;44.83
3812;BME280;1921;49.368;11.068;2023-08-30T09:24:06;96932.00;;;25.54;47.06
3812;BME280;1921;49.368;11.068;2023-08-30T09:26:34;96956.06;;;25.11;49.17
3812;BME280;1921;49.368;11.068;2023-08-30T09:29:08;96894.06;;;24.53;50.61
3812;BME280;1921;49.368;11.068;2023-08-30T09:31:35;96960.69;;;25.01;49.99
3812;BME280;1921;49.368;11.068;2023-08-30T09:34:03;96954.72;;;24.66;49.28
3812;BME280;1921;49.368;11.068;2023-08-30T09:36:39;96955.94;;;24.50;48.54
3812;BME280;1921;49.368;11.068;2023-08-30T09:39:14;96997.66;;;24.88;50.04
3812;BME280;1921;49.368;11.068;2023-08-30T09:41:45;96969.06;;;25.18;48.22
3812;BME280;1921;49.368;11.068;2023-08-30T09:44:12;96945.75;;;25.05;48.50
3812;BME280;1921;49.368;11.068;2023-08-30T09:46:53;96959.41;;;24.98;49.55
3812;BME280;1921;49.368;11.068;2023-08-30T09:49:23;96955.94;;;24.97;47.61
3812;BME280;1921;49.368;11.068;2023-08-30T09:51:52;96944.84;;;24.66;47.81
3812;BME280;1921;49.368;11.068;2023-08-30T09:54:24;96943.47;;;24.69;47.97
3812;BME280;1921;49.368;11.068;2023-08-30T09:56:50;96955.22;;;25.16;47.37
3812;BME280;1921;49.368;11.068;2023-08-30T09:59:19;96955.38;;;25.43;46.77
3812;BME280;1921;49.368;11.068;2023-08-30T10:01:47;96951.03;;;25.66;47.13
3812;BME280;1921;49.368;11.068;2023-08-30T10:04:20;96959.91;;;26.13;44.96
3812;BME280;1921;49.368;11.068;2023-08-30T10:06:47;96942.00;;;26.14;45.62
3812;BME280;1921;49.368;11.068;2023-08-30T10:09:14;96959.97;;;25.94;45.51
3812;BME280;1921;49.368;11.068;2023-08-30T10:11:40;96957.69;;;26.01;46.38
3812;BME280;1921;49.368;11.068;2023-08-30T10:14:07;96963.44;;;26.27;45.65
3812;BME280;1921;49.368;11.068;2023-08-30T10:16:48;96946.88;;;26.25;44.64
3812;BME280;1921;49.368;11.068;2023-08-30T10:19:28;96974.38;;;26.45;43.24
3812;BME280;1921;49.368;11.068;2023-08-30T10:22:04;96934.38;;;25.74;44.50
3812;BME280;1921;49.368;11.068;2023-08-30T10:24:55;96974.41;;;25.93;45.60
3812;BME280;1921;49.368;11.068;2023-08-30T10:27:22;96897.00;;;25.69;45.27
3812;BME280;1921;49.368;11.068;2023-08-30T10:29:50;96879.84;;;25.75;43.36
3812;BME280;1921;49.368;11.068;2023-08-30T10:32:23;96946.66;;;26.82;41.37
3812;BME280;1921;49.368;11.068;2023-08-30T10:34:50;96914.06;;;26.80;42.92
3812;BME280;1921;49.368;11.068;2023-08-30T10:37:23;96931.47;;;27.55;42.88
3812;BME280;1921;49.368;11.068;2023-08-30T10:39:52;96903.66;;;27.87;40.77
3812;BME280;1921;49.368;11.068;2023-08-30T10:42:22;96892.75;;;27.61;40.18
3812;BME280;1921;49.368;11.068;2023-08-30T10:44:59;96926.09;;;27.91;40.69
3812;BME280;1921;49.368;11.068;2023-08-30T10:47:27;96915.38;;;28.62;39.18
3812;BME280;1921;49.368;11.068;2023-08-30T10:49:59;96929.75;;;28.97;38.44
3812;BME280;1921;49.368;11.068;2023-08-30T10:52:26;96910.03;;;29.36;38.42
3812;BME280;1921;49.368;11.068;2023-08-30T10:54:52;96953.06;;;29.71;37.30
3812;BME280;1921;49.368;11.068;2023-08-30T10:57:20;96932.13;;;29.16;37.49
3812;BME280;1921;49.368;11.068;2023-08-30T11:00:06;96948.09;;;29.21;39.13
3812;BME280;1921;49.368;11.068;2023-08-30T11:02:34;96879.84;;;29.13;38.59
3812;BME280;1921;49.368;11.068;2023-08-30T11:05:01;96897.06;;;29.47;37.29
3812;BME280;1921;49.368;11.068;2023-08-30T11:07:29;96923.63;;;29.40;39.10
3812;BME280;1921;49.368;11.068;2023-08-30T11:09:55;96916.00;;;28.99;37.05
3812;BME280;1921;49.368;11.068;2023-08-30T11:12:21;96956.41;;;28.54;38.78
3812;BME280;1921;49.368;11.068;2023-08-30T11:14:52;96922.06;;;28.73;38.00
3812;BME280;1921;49.368;11.068;2023-08-30T11:17:19;96888.63;;;27.19;40.33
3812;BME280;1921;49.368;11.068;2023-08-30T11:19:45;96901.91;;;25.11;46.07
3812;BME280;1921;49.368;11.068;2023-08-30T11:22:15;96922.50;;;26.13;44.02
3812;BME280;1921;49.368;11.068;2023-08-30T11:24:45;96953.59;;;26.55;39.83
3812;BME280;1921;49.368;11.068;2023-08-30T11:27:12;96874.50;;;26.22;41.89
3812;BME280;1921;49.368;11.068;2023-08-30T11:29:41;96932.28;;;28.00;39.44
3812;BME280;1921;49.368;11.068;2023-08-30T11:32:08;96885.97;;;28.08;38.52
3812;BME280;1921;49.368;11.068;2023-08-30T11:34:33;96885.81;;;27.82;39.35
3812;BME280;1921;49.368;11.068;2023-08-30T11:36:59;96925.75;;;27.93;38.40
3812;BME280;1921;49.368;11.068;2023-08-30T11:39:28;96880.19;;;28.24;38.26
3812;BME280;1921;49.368;11.068;2023-08-30T11:41:54;96878.47;;;28.67;37.20
3812;BME280;1921;49.368;11.068;2023-08-30T11:44:23;96887.91;;;29.13;36.06
3812;BME280;1921;49.368;11.068;2023-08-30T11:46:49;96880.66;;;29.40;36.08
3812;BME280;1921;49.368;11.068;2023-08-30T11:49:22;96888.22;;;29.46;37.15
3812;BME280;1921;49.368;11.068;2023-08-30T11:51:48;96876.22;;;29.01;35.65
3812;BME280;1921;49.368;11.068;2023-08-30T11:54:14;96874.03;;;28.54;36.41
3812;BME280;1921;49.368;11.068;2023-08-30T11:56:40;96885.63;;;28.01;37.21
3812;BME280;1921;49.368;11.068;2023-08-30T11:59:07;96869.50;;;27.48;38.24
3812;BME280;1921;49.368;11.068;2023-08-30T12:01:43;96874.28;;;26.87;38.62
3812;BME280;1921;49.368;11.068;2023-08-30T12:04:10;96876.31;;;26.68;40.01
3812;BME280;1921;49.368;11.068;2023-08-30T12:06:36;96898.09;;;26.61;40.50
3812;BME280;1921;49.368;11.068;2023-08-30T12:09:02;96888.19;;;26.34;42.31
3812;BME280;1921;49.368;11.068;2023-08-30T12:11:32;96884.28;;;26.26;42.45
3812;BME280;1921;49.368;11.068;2023-08-30T12:14:07;96892.44;;;26.21;41.90
3812;BME280;1921;49.368;11.068;2023-08-30T12:16:32;96874.84;;;25.69;43.46
3812;BME280;1921;49.368;11.068;2023-08-30T12:19:08;96885.03;;;25.86;42.91
3812;BME280;1921;49.368;11.068;2023-08-30T12:21:44;96869.78;;;25.54;43.11
3812;BME280;1921;49.368;11.068;2023-08-30T12:24:12;96860.84;;;25.26;44.43
3812;BME280;1921;49.368;11.068;2023-08-30T12:26:38;96860.28;;;25.29;43.10
3812;BME280;1921;49.368;11.068;2023-08-30T12:29:07;96869.66;;;25.26;44.74
3812;BME280;1921;49.368;11.068;2023-08-30T12:31:33;96911.94;;;25.38;45.06
3812;BME280;1921;49.368;11.068;2023-08-30T12:33:59;96900.41;;;25.23;45.90
3812;BME280;1921;49.368;11.068;2023-08-30T12:36:24;96899.38;;;25.19;46.02
3812;BME280;1921;49.368;11.068;2023-08-30T12:38:50;96923.19;;;25.16;45.91
3812;BME280;1921;49.368;11.068;2023-08-30T12:41:16;96884.91;;;24.83;47.02
3812;BME280;1921;49.368;11.068;2023-08-30T12:43:42;96866.59;;;24.52;47.51
3812;BME280;1921;49.368;11.068;2023-08-30T12:46:08;96907.31;;;24.82;47.58
3812;BME280;1921;49.368;11.068;2023-08-30T12:48:33;96912.59;;;24.63;48.81
3812;BME280;1921;49.368;11.068;2023-08-30T12:50:59;96848.34;;;24.16;47.40
3812;BME280;1921;49.368;11.068;2023-08-30T12:53:25;96855.50;;;24.16;46.87
3812;BME280;1921;49.368;11.068;2023-08-30T12:55:51;96831.31;;;23.88;48.20
3812;BME280;1921;49.368;11.068;2023-08-30T12:58:17;96858.84;;;24.03;47.81
3812;BME280;1921;49.368;11.068;2023-08-30T13:00:42;96866.34;;;24.01;47.34
3812;BME280;1921;49.368;11.068;2023-08-30T13:03:08;96857.28;;;24.02;46.60
3812;BME280;1921;49.368;11.068;2023-08-30T13:05:34;96864.03;;;24.18;46.91
3812;BME280;1921;49.368;11.068;2023-08-30T13:08:02;96862.81;;;24.34;45.90
3812;BME280;1921;49.368;11.068;2023-08-30T13:10:28;96904.22;;;24.51;46.03